Knight, Indiana
Current Conditions -  °F | °C
As of 11:54 PM on Saturday 22 Nov 2014 (Local Time) from KEVV Reporting Station
Clear Clear  
Wind Chill: 51°   Ceiling: Unl
Heat Index: 51°   Visibility: 10mi
Dew Point: 35°   Wind: 5mph
Humidity: 54%   Direction: 140°SE
Pressure: 30"   Gusts: NA
Location:  38.0153°N, 87.5343°W
Report Text: KEVV 230554Z AUTO 14004KT 10SM CLR 11/02 A3000 RMK AO2 SLP157 T01060017 10150 20106 401780044 58009
Loading
Personal Weather Stations






























Interactive Weather Map New forecast layout! Learn more

10-Day Weather Forecast

Advertisements
Track Severe Weather on mobile